createdAt,value
2022-11-26T00:02:27.767Z,10.02
2022-11-26T00:04:55.559Z,9.55
2022-11-26T00:07:27.797Z,9.20
2022-11-26T00:09:55.926Z,9.50
2022-11-26T00:12:28.020Z,9.65
2022-11-26T00:14:55.340Z,9.93
2022-11-26T00:17:22.580Z,9.43
2022-11-26T00:19:49.943Z,8.83
2022-11-26T00:22:30.214Z,9.70
2022-11-26T00:24:57.477Z,9.38
2022-11-26T00:27:26.755Z,10.30
2022-11-26T00:29:55.493Z,9.00
2022-11-26T00:32:26.085Z,9.13
2022-11-26T00:34:53.775Z,8.02
2022-11-26T00:37:23.784Z,8.68
2022-11-26T00:39:51.097Z,8.85
2022-11-26T00:42:18.303Z,9.52
2022-11-26T00:44:45.621Z,8.47
2022-11-26T00:47:12.787Z,8.02
2022-11-26T00:49:40.071Z,8.55
2022-11-26T00:52:32.476Z,7.72
2022-11-26T00:54:59.920Z,8.35
2022-11-26T00:57:27.119Z,8.50
2022-11-26T00:59:54.363Z,8.05
2022-11-26T01:02:21.598Z,8.15
2022-11-26T01:04:49.040Z,8.40
2022-11-26T01:07:16.272Z,7.85
2022-11-26T01:09:44.292Z,7.43
2022-11-26T01:12:14.667Z,7.45
2022-11-26T01:14:42.012Z,7.93
2022-11-26T01:17:11.029Z,6.95
2022-11-26T01:19:38.282Z,7.10
2022-11-26T01:22:05.506Z,7.73
2022-11-26T01:24:32.836Z,7.75
2022-11-26T01:27:00.098Z,8.10
2022-11-26T01:29:27.393Z,7.70
2022-11-26T01:31:54.728Z,7.38
2022-11-26T01:34:22.122Z,7.57
2022-11-26T01:36:49.435Z,7.32
2022-11-26T01:39:18.605Z,7.82
2022-11-26T01:42:09.403Z,7.55
2022-11-26T01:44:37.399Z,7.70
2022-11-26T01:47:24.739Z,7.50
2022-11-26T01:50:32.326Z,7.95
2022-11-26T01:53:13.961Z,7.63
2022-11-26T01:55:53.644Z,8.18
2022-11-26T01:58:34.456Z,7.78
2022-11-26T02:01:05.807Z,7.47
2022-11-26T02:03:35.189Z,7.88
2022-11-26T02:06:05.430Z,7.25
2022-11-26T02:08:33.209Z,7.72
2022-11-26T02:11:02.776Z,7.93
2022-11-26T02:13:30.030Z,7.87
2022-11-26T02:16:05.589Z,7.13
2022-11-26T02:18:34.236Z,7.65
2022-11-26T02:21:04.496Z,7.55
2022-11-26T02:23:58.197Z,7.68
2022-11-26T02:27:04.711Z,7.50
2022-11-26T02:29:53.098Z,7.20
2022-11-26T02:32:21.685Z,7.43
2022-11-26T02:35:13.200Z,8.10
2022-11-26T02:37:54.309Z,9.40
2022-11-26T02:40:21.946Z,8.70
2022-11-26T02:42:49.167Z,8.02
2022-11-26T02:45:18.473Z,9.00
2022-11-26T02:47:47.472Z,8.00
2022-11-26T02:50:33.351Z,8.73
2022-11-26T02:53:00.766Z,7.70
2022-11-26T02:55:33.053Z,7.70
2022-11-26T02:58:01.073Z,7.40
2022-11-26T03:00:28.398Z,8.25
2022-11-26T03:03:01.839Z,8.13
2022-11-26T03:05:32.177Z,8.70
2022-11-26T03:07:59.537Z,8.68
2022-11-26T03:10:27.740Z,8.43
2022-11-26T03:12:55.086Z,8.98
2022-11-26T03:15:22.367Z,8.52
2022-11-26T03:17:49.804Z,8.63
2022-11-26T03:20:17.135Z,9.98
2022-11-26T03:22:44.505Z,9.77
2022-11-26T03:25:11.830Z,9.25
2022-11-26T03:27:39.155Z,13.35
2022-11-26T03:30:07.053Z,12.53
2022-11-26T03:32:34.375Z,13.15
2022-11-26T03:35:01.679Z,13.85
2022-11-26T03:37:29.011Z,13.00
2022-11-26T03:39:56.218Z,12.52
2022-11-26T03:42:23.577Z,11.77
2022-11-26T03:44:50.828Z,11.88
2022-11-26T03:47:18.117Z,11.38
2022-11-26T03:49:45.383Z,11.43
2022-11-26T03:52:13.203Z,10.57
2022-11-26T03:54:40.650Z,11.23
2022-11-26T03:57:08.096Z,10.45
2022-11-26T03:59:35.375Z,10.10
2022-11-26T04:02:02.619Z,10.50
2022-11-26T04:04:29.972Z,11.32
2022-11-26T04:06:57.317Z,10.43
2022-11-26T04:09:24.618Z,10.35
2022-11-26T04:11:52.090Z,11.10
2022-11-26T04:14:19.390Z,11.18
2022-11-26T04:16:46.844Z,10.55
2022-11-26T04:19:14.080Z,10.47
2022-11-26T04:21:41.339Z,9.07
2022-11-26T04:24:08.556Z,10.02
2022-11-26T04:26:35.865Z,9.40
2022-11-26T04:29:03.229Z,10.30
2022-11-26T04:31:30.535Z,10.73
2022-11-26T04:33:57.767Z,9.52
2022-11-26T04:36:25.176Z,8.75
2022-11-26T04:38:52.431Z,9.38
2022-11-26T04:41:19.727Z,8.65
2022-11-26T04:43:47.193Z,9.30
2022-11-26T04:46:14.564Z,9.98
2022-11-26T04:48:41.803Z,9.20
2022-11-26T04:51:09.069Z,9.48
2022-11-26T04:53:36.305Z,10.00
2022-11-26T04:56:03.698Z,9.90
2022-11-26T04:58:31.196Z,9.70
2022-11-26T05:00:58.455Z,9.55
2022-11-26T05:03:25.716Z,9.40
2022-11-26T05:05:53.153Z,9.60
2022-11-26T05:08:20.354Z,8.80
2022-11-26T05:10:47.598Z,8.20
2022-11-26T05:13:14.849Z,8.60
2022-11-26T05:15:42.106Z,7.70
2022-11-26T05:18:09.409Z,7.55
2022-11-26T05:20:36.661Z,7.87
2022-11-26T05:23:03.839Z,7.20
2022-11-26T05:25:31.118Z,8.02
2022-11-26T05:27:58.343Z,8.05
2022-11-26T05:30:25.581Z,7.25
2022-11-26T05:32:52.896Z,7.60
2022-11-26T05:35:20.276Z,7.55
2022-11-26T05:37:47.541Z,7.88
2022-11-26T05:40:14.941Z,7.40
2022-11-26T05:42:42.217Z,9.35
2022-11-26T05:45:09.803Z,7.33
2022-11-26T05:47:37.085Z,7.50
2022-11-26T05:50:04.740Z,8.43
2022-11-26T05:52:31.978Z,6.97
2022-11-26T05:54:59.237Z,7.35
2022-11-26T05:57:26.610Z,7.37
2022-11-26T05:59:53.929Z,7.47
2022-11-26T06:02:21.313Z,7.60
2022-11-26T06:04:48.631Z,6.88
2022-11-26T06:07:15.928Z,7.28
2022-11-26T06:09:43.215Z,8.07
2022-11-26T06:12:10.465Z,6.82
2022-11-26T06:14:42.796Z,7.47
2022-11-26T06:17:11.103Z,7.25
2022-11-26T06:19:38.459Z,6.72
2022-11-26T06:22:05.738Z,7.93
2022-11-26T06:24:32.943Z,8.98
2022-11-26T06:27:00.453Z,9.55
2022-11-26T06:29:28.328Z,10.50
2022-11-26T06:31:55.889Z,15.07
2022-11-26T06:34:23.178Z,13.30
2022-11-26T06:36:50.524Z,12.95
2022-11-26T06:39:17.786Z,13.63
2022-11-26T06:41:45.082Z,12.82
2022-11-26T06:44:12.309Z,12.20
2022-11-26T06:46:39.594Z,12.93
2022-11-26T06:49:06.874Z,9.18
2022-11-26T06:51:34.144Z,10.10
2022-11-26T06:54:01.377Z,10.60
2022-11-26T06:56:28.749Z,9.13
2022-11-26T06:58:56.215Z,8.87
2022-11-26T07:01:25.504Z,8.55
2022-11-26T07:03:52.917Z,8.38
2022-11-26T07:06:28.236Z,7.80
2022-11-26T07:08:57.024Z,7.40
2022-11-26T07:11:24.507Z,7.63
2022-11-26T07:13:52.245Z,6.63
2022-11-26T07:16:19.494Z,7.10
2022-11-26T07:18:59.247Z,7.07
2022-11-26T07:21:29.663Z,6.60
2022-11-26T07:23:57.035Z,6.37
2022-11-26T07:26:24.292Z,6.75
2022-11-26T07:28:51.689Z,7.00
2022-11-26T07:31:20.589Z,9.27
2022-11-26T07:33:48.065Z,7.82
2022-11-26T07:36:23.050Z,8.17
2022-11-26T07:38:50.507Z,7.28
2022-11-26T07:41:18.702Z,8.05
2022-11-26T07:43:46.235Z,7.40
2022-11-26T07:46:15.988Z,8.65
2022-11-26T07:48:43.404Z,8.20
2022-11-26T07:51:17.714Z,7.63
2022-11-26T07:53:45.021Z,8.95
2022-11-26T07:56:12.335Z,10.30
2022-11-26T07:58:39.595Z,9.18
2022-11-26T08:01:11.157Z,8.50
2022-11-26T08:03:42.375Z,8.27
2022-11-26T08:06:11.932Z,8.88
2022-11-26T08:08:39.339Z,8.52
2022-11-26T08:11:18.075Z,8.57
2022-11-26T08:13:45.931Z,7.67
2022-11-26T08:16:13.491Z,7.70
2022-11-26T08:18:41.080Z,7.20
2022-11-26T08:21:08.563Z,6.80
2022-11-26T08:23:36.033Z,6.78
2022-11-26T08:28:59.106Z,7.97
2022-11-26T08:31:28.236Z,7.60
2022-11-26T08:33:59.512Z,5.97
2022-11-26T08:36:27.663Z,6.55
2022-11-26T08:38:55.019Z,6.40
2022-11-26T08:41:22.454Z,6.63
2022-11-26T08:44:07.107Z,5.70
2022-11-26T08:46:36.876Z,6.53
2022-11-26T08:49:04.838Z,5.75
2022-11-26T08:51:32.282Z,5.73
2022-11-26T08:53:59.525Z,5.88
2022-11-26T08:56:26.933Z,5.40
2022-11-26T08:58:54.185Z,5.95
2022-11-26T09:01:24.734Z,5.88
2022-11-26T09:03:53.598Z,5.67
2022-11-26T09:06:21.814Z,5.68
2022-11-26T09:09:07.726Z,5.95
2022-11-26T09:11:37.046Z,5.53
2022-11-26T09:14:04.421Z,5.53
2022-11-26T09:16:31.851Z,6.00
2022-11-26T09:19:03.385Z,5.88
2022-11-26T09:21:30.731Z,6.70
2022-11-26T09:23:57.989Z,7.25
2022-11-26T09:26:25.777Z,7.13
2022-11-26T09:28:53.153Z,6.90
2022-11-26T09:31:20.622Z,6.63
2022-11-26T09:33:48.074Z,5.30
2022-11-26T09:36:16.260Z,5.70
2022-11-26T09:38:43.721Z,5.65
2022-11-26T09:41:38.695Z,5.30
2022-11-26T09:44:15.272Z,5.30
2022-11-26T09:47:15.845Z,6.68
2022-11-26T09:50:10.928Z,5.97
2022-11-26T09:52:52.358Z,6.10
2022-11-26T09:55:22.920Z,5.80
2022-11-26T09:58:27.247Z,5.20
2022-11-26T10:00:57.189Z,5.88
2022-11-26T10:03:30.798Z,5.55
2022-11-26T10:06:02.425Z,5.72
2022-11-26T10:09:00.485Z,5.60
2022-11-26T10:11:52.971Z,4.60
2022-11-26T10:15:05.339Z,4.40
2022-11-26T10:17:41.275Z,4.85
2022-11-26T10:20:27.109Z,5.22
2022-11-26T10:23:11.591Z,5.10
2022-11-26T10:25:52.742Z,5.05
2022-11-26T10:28:20.227Z,3.95
2022-11-26T10:30:52.716Z,4.47
2022-11-26T10:33:20.036Z,6.28
2022-11-26T10:35:47.334Z,7.00
2022-11-26T10:38:14.994Z,6.07
2022-11-26T10:40:42.282Z,5.60
2022-11-26T10:43:12.927Z,4.93
2022-11-26T10:45:51.628Z,5.93
2022-11-26T10:48:26.403Z,4.97
2022-11-26T10:51:06.451Z,6.03
2022-11-26T10:53:55.234Z,5.85
2022-11-26T10:56:24.213Z,5.75
2022-11-26T10:58:51.918Z,5.53
2022-11-26T11:01:19.279Z,5.27
2022-11-26T11:04:10.282Z,5.63
2022-11-26T11:06:41.178Z,5.75
2022-11-26T11:09:31.853Z,5.80
2022-11-26T11:12:11.229Z,5.65
2022-11-26T11:14:43.125Z,3.83
2022-11-26T11:17:20.284Z,4.35
2022-11-26T11:19:47.630Z,4.70
2022-11-26T11:22:19.951Z,4.60
2022-11-26T11:24:47.299Z,5.30
2022-11-26T11:27:28.511Z,5.10
2022-11-26T11:30:00.668Z,5.07
2022-11-26T11:32:39.581Z,5.28
2022-11-26T11:35:32.989Z,5.45
2022-11-26T11:38:00.461Z,5.15
2022-11-26T11:40:29.314Z,4.40
2022-11-26T11:43:07.206Z,4.70
2022-11-26T11:45:41.801Z,6.28
2022-11-26T11:48:43.705Z,5.97
2022-11-26T11:51:35.233Z,6.00
2022-11-26T11:54:02.794Z,4.83
2022-11-26T11:56:44.475Z,5.00
2022-11-26T11:59:47.694Z,5.80
2022-11-26T12:02:47.797Z,7.53
2022-11-26T12:05:27.330Z,5.90
2022-11-26T12:08:01.627Z,5.37
2022-11-26T12:10:50.053Z,5.03
2022-11-26T12:13:17.416Z,5.50
2022-11-26T12:16:00.819Z,5.40
2022-11-26T12:19:05.779Z,4.90
2022-11-26T12:21:39.632Z,5.43
2022-11-26T12:24:06.948Z,7.05
2022-11-26T12:26:47.709Z,7.68
2022-11-26T12:29:41.280Z,5.85
2022-11-26T12:32:16.472Z,6.55
2022-11-26T12:34:52.795Z,5.70
2022-11-26T12:37:21.440Z,4.97
2022-11-26T12:39:56.483Z,5.90
2022-11-26T12:42:36.030Z,5.57
2022-11-26T12:45:17.389Z,5.88
2022-11-26T12:47:53.463Z,5.87
2022-11-26T12:50:29.725Z,5.25
2022-11-26T12:53:23.614Z,6.22
2022-11-26T12:55:50.898Z,6.80
2022-11-26T12:58:29.273Z,6.97
2022-11-26T13:00:57.098Z,6.87
2022-11-26T13:03:29.815Z,6.85
2022-11-26T13:06:34.123Z,6.18
2022-11-26T13:09:43.220Z,6.93
2022-11-26T13:12:36.728Z,6.72
2022-11-26T13:15:28.040Z,5.97
2022-11-26T13:17:55.437Z,6.45
2022-11-26T13:20:49.508Z,6.45
2022-11-26T13:23:34.403Z,7.18
2022-11-26T13:26:29.299Z,5.75
2022-11-26T13:29:29.351Z,5.23
2022-11-26T13:32:27.110Z,4.30
2022-11-26T13:35:06.649Z,3.75
2022-11-26T13:38:00.228Z,3.72
2022-11-26T13:40:56.035Z,3.88
2022-11-26T13:43:38.017Z,3.50
2022-11-26T13:46:22.999Z,3.33
2022-11-26T13:48:56.457Z,3.60
2022-11-26T13:51:43.512Z,3.88
2022-11-26T13:54:39.795Z,3.05
2022-11-26T13:57:18.744Z,2.90
2022-11-26T13:59:50.564Z,3.38
2022-11-26T14:02:33.384Z,3.42
2022-11-26T14:05:01.563Z,3.22
2022-11-26T14:07:28.888Z,3.58
2022-11-26T14:10:00.983Z,3.60
2022-11-26T14:13:08.022Z,3.83
2022-11-26T14:15:41.381Z,4.43
2022-11-26T14:18:09.288Z,4.80
2022-11-26T14:21:15.397Z,5.10
2022-11-26T14:23:56.969Z,5.80
2022-11-26T14:26:31.720Z,4.40
2022-11-26T14:29:07.968Z,3.90
2022-11-26T14:31:36.431Z,3.47
2022-11-26T14:34:15.896Z,4.38
2022-11-26T14:36:54.975Z,3.90
2022-11-26T14:39:22.415Z,3.25
2022-11-26T14:42:00.525Z,3.53
2022-11-26T14:44:34.903Z,3.20
2022-11-26T14:47:16.369Z,3.00
2022-11-26T14:50:01.063Z,2.90
2022-11-26T14:52:30.791Z,3.00
2022-11-26T14:54:59.267Z,3.20
2022-11-26T14:57:38.833Z,3.22
2022-11-26T15:00:30.770Z,3.50
2022-11-26T15:02:58.335Z,3.63
2022-11-26T15:05:35.469Z,3.75
2022-11-26T15:08:04.969Z,4.10
2022-11-26T15:10:40.182Z,4.03
2022-11-26T15:13:13.271Z,4.25
2022-11-26T15:15:53.680Z,4.07
2022-11-26T15:18:22.673Z,4.22
2022-11-26T15:20:53.082Z,4.53
2022-11-26T15:23:25.449Z,4.07
2022-11-26T15:25:54.359Z,3.85
2022-11-26T15:28:22.972Z,3.57
2022-11-26T15:31:03.262Z,3.42
2022-11-26T15:33:34.472Z,3.60
2022-11-26T15:36:02.533Z,4.30
2022-11-26T15:38:31.399Z,3.97
2022-11-26T15:40:58.769Z,3.80
2022-11-26T15:43:47.062Z,3.80
2022-11-26T15:46:17.369Z,4.10
2022-11-26T15:48:53.237Z,3.10
2022-11-26T15:51:24.810Z,3.60
2022-11-26T15:53:52.286Z,3.30
2022-11-26T15:56:21.056Z,3.38
2022-11-26T15:58:50.587Z,3.83
2022-11-26T16:01:19.450Z,3.42
2022-11-26T16:03:48.888Z,4.50
2022-11-26T16:06:28.391Z,3.90
2022-11-26T16:09:04.988Z,4.45
2022-11-26T16:11:34.538Z,4.97
2022-11-26T16:14:24.046Z,3.92
2022-11-26T16:16:52.982Z,5.70
2022-11-26T16:19:22.811Z,5.37
2022-11-26T16:21:51.135Z,5.85
2022-11-26T16:24:35.462Z,6.13
2022-11-26T16:27:08.024Z,6.53
2022-11-26T16:29:38.586Z,6.20
2022-11-26T16:32:05.938Z,5.83
2022-11-26T16:34:33.246Z,7.38
2022-11-26T16:37:16.467Z,5.80
2022-11-26T16:39:44.028Z,5.55
2022-11-26T16:42:15.723Z,7.88
2022-11-26T16:44:43.063Z,10.20
2022-11-26T16:47:22.715Z,9.93
2022-11-26T16:49:50.375Z,12.63
2022-11-26T16:52:18.501Z,11.52
2022-11-26T16:54:45.889Z,11.82
2022-11-26T16:57:14.926Z,9.33
2022-11-26T16:59:43.785Z,10.18
2022-11-26T17:02:18.652Z,11.07
2022-11-26T17:04:46.097Z,10.30
2022-11-26T17:07:21.360Z,10.80
2022-11-26T17:09:48.736Z,10.83
2022-11-26T17:12:21.286Z,9.23
2022-11-26T17:14:48.667Z,8.43
2022-11-26T17:17:20.623Z,8.48
2022-11-26T17:19:51.261Z,8.00
2022-11-26T17:22:18.463Z,9.10
2022-11-26T17:24:45.770Z,8.52
2022-11-26T17:27:14.530Z,9.10
2022-11-26T17:29:42.924Z,8.77
2022-11-26T17:32:14.384Z,8.85
2022-11-26T17:34:41.766Z,9.17
2022-11-26T17:37:35.587Z,8.88
2022-11-26T17:40:03.038Z,12.55
2022-11-26T17:42:36.313Z,10.43
2022-11-26T17:45:04.585Z,10.88
2022-11-26T17:47:31.981Z,10.17
2022-11-26T17:49:59.302Z,12.00
2022-11-26T17:52:26.562Z,13.80
2022-11-26T17:54:53.878Z,12.45
2022-11-26T17:57:22.970Z,10.80
2022-11-26T17:59:50.338Z,13.33
2022-11-26T18:02:17.642Z,11.50
2022-11-26T18:04:45.049Z,11.27
2022-11-26T18:07:17.861Z,10.95
2022-11-26T18:09:45.560Z,11.48
2022-11-26T18:12:24.933Z,11.70
2022-11-26T18:14:53.822Z,11.68
2022-11-26T18:17:21.134Z,11.15
2022-11-26T18:19:49.124Z,11.05
2022-11-26T18:22:19.794Z,11.73
2022-11-26T18:24:57.681Z,11.97
2022-11-26T18:27:27.618Z,10.60
2022-11-26T18:29:54.915Z,11.00
2022-11-26T18:32:22.552Z,11.63
2022-11-26T18:34:50.797Z,12.80
2022-11-26T18:37:18.118Z,13.63
2022-11-26T18:39:45.508Z,15.07
2022-11-26T18:42:42.844Z,17.65
2022-11-26T18:45:00.741Z,15.38
2022-11-26T18:47:28.665Z,14.43
2022-11-26T18:49:55.978Z,15.00
2022-11-26T18:52:23.286Z,17.25
2022-11-26T18:54:50.642Z,17.55
2022-11-26T18:57:17.882Z,17.27
2022-11-26T18:59:46.809Z,14.02
2022-11-26T19:02:14.180Z,15.03
2022-11-26T19:04:41.677Z,14.77
2022-11-26T19:07:09.443Z,16.00
2022-11-26T19:09:37.408Z,15.50
2022-11-26T19:12:05.290Z,16.25
2022-11-26T19:14:32.846Z,16.80
2022-11-26T19:17:00.776Z,16.08
2022-11-26T19:19:28.364Z,15.50
2022-11-26T19:22:01.012Z,13.10
2022-11-26T19:24:29.808Z,13.07
2022-11-26T19:26:57.345Z,12.67
2022-11-26T19:29:24.685Z,12.13
2022-11-26T19:31:51.910Z,12.57
2022-11-26T19:34:19.291Z,11.65
2022-11-26T19:36:48.792Z,10.73
2022-11-26T19:39:16.442Z,12.43
2022-11-26T19:41:43.842Z,13.80
2022-11-26T19:44:11.644Z,13.65
2022-11-26T19:46:41.008Z,14.02
2022-11-26T19:49:11.572Z,11.65
2022-11-26T19:51:38.955Z,12.23
2022-11-26T19:54:06.427Z,14.73
2022-11-26T19:56:33.789Z,14.40
2022-11-26T19:59:02.435Z,14.05
2022-11-26T20:01:31.935Z,11.68
2022-11-26T20:04:00.528Z,11.27
2022-11-26T20:06:28.521Z,10.40
2022-11-26T20:08:55.991Z,10.00
2022-11-26T20:11:23.392Z,9.48
2022-11-26T20:13:50.682Z,8.73
2022-11-26T20:16:20.317Z,8.00
2022-11-26T20:18:47.643Z,7.18
2022-11-26T20:21:19.752Z,7.43
2022-11-26T20:23:47.295Z,5.82
2022-11-26T20:26:16.577Z,5.22
2022-11-26T20:28:44.057Z,5.07
2022-11-26T20:31:11.801Z,4.90
2022-11-26T20:33:39.218Z,4.20
2022-11-26T20:36:08.164Z,4.50
2022-11-26T20:38:35.721Z,4.47
2022-11-26T20:41:29.491Z,4.47
2022-11-26T20:43:59.315Z,4.05
2022-11-26T20:46:27.468Z,4.03
2022-11-26T20:48:54.982Z,4.20
2022-11-26T20:51:22.574Z,4.03
2022-11-26T20:53:50.740Z,3.60
2022-11-26T20:56:19.394Z,3.45
2022-11-26T20:58:46.835Z,3.50
2022-11-26T21:01:22.035Z,3.50
2022-11-26T21:03:50.271Z,3.33
2022-11-26T21:06:19.031Z,3.63
2022-11-26T21:08:46.603Z,4.35
2022-11-26T21:11:14.268Z,4.65
2022-11-26T21:13:41.781Z,4.63
2022-11-26T21:16:13.561Z,4.78
2022-11-26T21:18:40.939Z,4.47
2022-11-26T21:21:12.661Z,4.50
2022-11-26T21:23:40.249Z,4.43
2022-11-26T21:26:11.811Z,4.63
2022-11-26T21:28:39.148Z,4.07
2022-11-26T21:31:07.191Z,4.03
2022-11-26T21:33:34.888Z,4.10
2022-11-26T21:36:06.674Z,4.25
2022-11-26T21:38:34.323Z,4.20
2022-11-26T21:41:08.366Z,4.07
2022-11-26T21:43:35.692Z,3.97
2022-11-26T21:46:03.908Z,3.83
2022-11-26T21:48:31.732Z,4.40
2022-11-26T21:50:59.038Z,4.20
2022-11-26T21:53:26.482Z,4.28
2022-11-26T21:55:54.030Z,3.60
2022-11-26T21:58:21.356Z,4.22
2022-11-26T22:00:48.598Z,4.00
2022-11-26T22:03:16.022Z,3.83
2022-11-26T22:05:43.669Z,3.92
2022-11-26T22:08:11.116Z,4.67
2022-11-26T22:10:38.413Z,5.07
2022-11-26T22:13:05.754Z,4.45
2022-11-26T22:15:32.984Z,4.63
2022-11-26T22:18:00.361Z,4.57
2022-11-26T22:20:27.741Z,4.63
2022-11-26T22:22:55.073Z,4.45
2022-11-26T22:25:23.893Z,4.00
2022-11-26T22:27:51.176Z,3.92
2022-11-26T22:30:19.112Z,3.72
2022-11-26T22:32:46.487Z,2.83
2022-11-26T22:35:13.785Z,3.92
2022-11-26T22:37:41.042Z,3.28
2022-11-26T22:40:09.875Z,3.33
2022-11-26T22:42:37.206Z,3.47
2022-11-26T22:45:04.825Z,2.93
2022-11-26T22:47:32.110Z,3.20
2022-11-26T22:49:59.328Z,3.50
2022-11-26T22:52:26.673Z,3.00
2022-11-26T22:54:53.935Z,2.38
2022-11-26T22:57:25.273Z,2.90
2022-11-26T22:59:53.159Z,3.10
2022-11-26T23:02:20.398Z,3.15
2022-11-26T23:04:47.689Z,3.13
2022-11-26T23:07:14.963Z,3.67
2022-11-26T23:09:46.541Z,3.27
2022-11-26T23:12:14.289Z,3.30
2022-11-26T23:14:41.495Z,3.20
2022-11-26T23:17:08.780Z,3.20
2022-11-26T23:19:36.028Z,3.40
2022-11-26T23:22:03.282Z,3.27
2022-11-26T23:24:30.491Z,3.35
2022-11-26T23:26:57.872Z,3.42
2022-11-26T23:29:25.054Z,3.22
2022-11-26T23:31:52.431Z,3.58
2022-11-26T23:34:19.780Z,3.43
2022-11-26T23:36:47.074Z,3.28
2022-11-26T23:39:14.375Z,3.40
2022-11-26T23:41:41.735Z,3.40
2022-11-26T23:44:08.926Z,3.80
2022-11-26T23:46:36.317Z,3.00
2022-11-26T23:49:04.229Z,3.55
2022-11-26T23:51:32.284Z,3.47
2022-11-26T23:53:59.493Z,3.00
2022-11-26T23:56:29.264Z,4.03
2022-11-26T23:58:58.050Z,3.47
